sensor_id;sensor_type;location;lat;lon;timestamp;temperature;humidity
59098;DHT22;44883;52.760;6.610;2022-09-16T00:01:26;12.10;99.90
59098;DHT22;44883;52.760;6.610;2022-09-16T00:03:56;12.10;99.90
59098;DHT22;44883;52.760;6.610;2022-09-16T00:06:27;12.20;99.90
59098;DHT22;44883;52.760;6.610;2022-09-16T00:08:58;12.20;99.90
59098;DHT22;44883;52.760;6.610;2022-09-16T00:11:27;12.20;99.90
59098;DHT22;44883;52.760;6.610;2022-09-16T00:13:53;12.10;99.90
59098;DHT22;44883;52.760;6.610;2022-09-16T00:16:22;12.20;99.90
59098;DHT22;44883;52.760;6.610;2022-09-16T00:18:50;12.20;99.90
59098;DHT22;44883;52.760;6.610;2022-09-16T00:21:17;12.20;99.90
59098;DHT22;44883;52.760;6.610;2022-09-16T00:23:42;12.30;99.90
59098;DHT22;44883;52.760;6.610;2022-09-16T00:26:08;12.30;99.90
59098;DHT22;44883;52.760;6.610;2022-09-16T00:28:34;12.20;99.90
59098;DHT22;44883;52.760;6.610;2022-09-16T00:31:01;12.30;99.90
59098;DHT22;44883;52.760;6.610;2022-09-16T00:33:27;12.30;99.90
59098;DHT22;44883;52.760;6.610;2022-09-16T00:36:13;12.30;99.90
59098;DHT22;44883;52.760;6.610;2022-09-16T00:38:40;12.30;99.90
59098;DHT22;44883;52.760;6.610;2022-09-16T00:41:06;12.30;99.90
59098;DHT22;44883;52.760;6.610;2022-09-16T00:43:57;12.30;99.90
59098;DHT22;44883;52.760;6.610;2022-09-16T00:46:42;12.30;99.90
59098;DHT22;44883;52.760;6.610;2022-09-16T00:49:14;12.30;99.90
59098;DHT22;44883;52.760;6.610;2022-09-16T00:51:43;12.40;99.90
59098;DHT22;44883;52.760;6.610;2022-09-16T00:54:10;12.40;99.90
59098;DHT22;44883;52.760;6.610;2022-09-16T00:56:38;12.40;99.90
59098;DHT22;44883;52.760;6.610;2022-09-16T00:59:10;12.40;99.90
59098;DHT22;44883;52.760;6.610;2022-09-16T01:01:39;12.50;99.90
59098;DHT22;44883;52.760;6.610;2022-09-16T01:04:12;12.50;99.90
59098;DHT22;44883;52.760;6.610;2022-09-16T01:06:39;12.50;99.90
59098;DHT22;44883;52.760;6.610;2022-09-16T01:09:05;12.50;99.90
59098;DHT22;44883;52.760;6.610;2022-09-16T01:11:31;12.50;99.90
59098;DHT22;44883;52.760;6.610;2022-09-16T01:13:58;12.50;99.90
59098;DHT22;44883;52.760;6.610;2022-09-16T01:16:53;12.60;99.90
59098;DHT22;44883;52.760;6.610;2022-09-16T01:31:17;12.50;99.90
59098;DHT22;44883;52.760;6.610;2022-09-16T01:33:49;12.50;99.90
59098;DHT22;44883;52.760;6.610;2022-09-16T01:36:29;12.40;99.90
59098;DHT22;44883;52.760;6.610;2022-09-16T01:39:04;12.40;99.90
59098;DHT22;44883;52.760;6.610;2022-09-16T01:44:26;12.40;99.90
59098;DHT22;44883;52.760;6.610;2022-09-16T01:47:01;12.30;99.90
59098;DHT22;44883;52.760;6.610;2022-09-16T01:49:43;12.30;99.90
59098;DHT22;44883;52.760;6.610;2022-09-16T01:55:06;12.30;99.90
59098;DHT22;44883;52.760;6.610;2022-09-16T02:00:21;12.30;99.90
59098;DHT22;44883;52.760;6.610;2022-09-16T02:02:53;12.30;99.90
59098;DHT22;44883;52.760;6.610;2022-09-16T02:05:33;12.30;99.90
59098;DHT22;44883;52.760;6.610;2022-09-16T02:08:12;12.30;99.90
59098;DHT22;44883;52.760;6.610;2022-09-16T02:10:59;12.30;99.90
59098;DHT22;44883;52.760;6.610;2022-09-16T02:13:29;12.30;99.90
59098;DHT22;44883;52.760;6.610;2022-09-16T02:15:59;12.30;99.90
59098;DHT22;44883;52.760;6.610;2022-09-16T02:18:28;12.30;99.90
59098;DHT22;44883;52.760;6.610;2022-09-16T02:20:56;12.30;99.90
59098;DHT22;44883;52.760;6.610;2022-09-16T02:23:31;12.30;99.90
59098;DHT22;44883;52.760;6.610;2022-09-16T02:25:59;12.30;99.90
59098;DHT22;44883;52.760;6.610;2022-09-16T02:28:31;12.30;99.90
59098;DHT22;44883;52.760;6.610;2022-09-16T02:31:02;12.30;99.90
59098;DHT22;44883;52.760;6.610;2022-09-16T02:33:34;12.30;99.90
59098;DHT22;44883;52.760;6.610;2022-09-16T02:36:00;12.30;99.90
59098;DHT22;44883;52.760;6.610;2022-09-16T02:38:33;12.30;99.90
59098;DHT22;44883;52.760;6.610;2022-09-16T02:41:00;12.30;99.90
59098;DHT22;44883;52.760;6.610;2022-09-16T02:43:27;12.20;99.90
59098;DHT22;44883;52.760;6.610;2022-09-16T02:46:07;12.10;99.90
59098;DHT22;44883;52.760;6.610;2022-09-16T02:53:52;12.00;99.90
59098;DHT22;44883;52.760;6.610;2022-09-16T02:56:31;12.00;99.90
59098;DHT22;44883;52.760;6.610;2022-09-16T02:58:57;11.90;99.90
59098;DHT22;44883;52.760;6.610;2022-09-16T03:01:23;11.80;99.90
59098;DHT22;44883;52.760;6.610;2022-09-16T03:03:52;11.80;99.90
59098;DHT22;44883;52.760;6.610;2022-09-16T03:06:27;11.80;99.90
59098;DHT22;44883;52.760;6.610;2022-09-16T03:08:56;11.70;99.90
59098;DHT22;44883;52.760;6.610;2022-09-16T03:20:13;11.70;99.90
59098;DHT22;44883;52.760;6.610;2022-09-16T03:25:57;11.80;99.90
59098;DHT22;44883;52.760;6.610;2022-09-16T03:28:03;11.90;99.90
59098;DHT22;44883;52.760;6.610;2022-09-16T03:30:32;11.90;99.90
59098;DHT22;44883;52.760;6.610;2022-09-16T03:33:08;11.90;99.90
59098;DHT22;44883;52.760;6.610;2022-09-16T03:35:42;11.90;99.90
59098;DHT22;44883;52.760;6.610;2022-09-16T03:38:11;12.00;99.90
59098;DHT22;44883;52.760;6.610;2022-09-16T03:40:39;12.00;99.90
59098;DHT22;44883;52.760;6.610;2022-09-16T03:43:13;12.00;99.90
59098;DHT22;44883;52.760;6.610;2022-09-16T03:45:41;12.00;99.90
59098;DHT22;44883;52.760;6.610;2022-09-16T03:48:08;12.00;99.90
59098;DHT22;44883;52.760;6.610;2022-09-16T03:50:34;11.90;99.90
59098;DHT22;44883;52.760;6.610;2022-09-16T03:53:00;11.90;99.90
59098;DHT22;44883;52.760;6.610;2022-09-16T03:55:26;11.90;99.90
59098;DHT22;44883;52.760;6.610;2022-09-16T03:57:53;11.90;99.90
59098;DHT22;44883;52.760;6.610;2022-09-16T04:00:18;11.90;99.90
59098;DHT22;44883;52.760;6.610;2022-09-16T04:02:44;11.90;99.90
59098;DHT22;44883;52.760;6.610;2022-09-16T04:05:10;11.80;99.90
59098;DHT22;44883;52.760;6.610;2022-09-16T04:07:35;11.80;99.90
59098;DHT22;44883;52.760;6.610;2022-09-16T04:10:01;11.80;99.90
59098;DHT22;44883;52.760;6.610;2022-09-16T04:12:28;11.80;99.90
59098;DHT22;44883;52.760;6.610;2022-09-16T04:14:53;11.80;99.90
59098;DHT22;44883;52.760;6.610;2022-09-16T04:17:19;11.80;99.90
59098;DHT22;44883;52.760;6.610;2022-09-16T04:19:44;11.80;99.90
59098;DHT22;44883;52.760;6.610;2022-09-16T04:22:10;11.90;99.90
59098;DHT22;44883;52.760;6.610;2022-09-16T04:24:36;11.80;99.90
59098;DHT22;44883;52.760;6.610;2022-09-16T04:27:01;11.80;99.90
59098;DHT22;44883;52.760;6.610;2022-09-16T04:29:27;11.80;99.90
59098;DHT22;44883;52.760;6.610;2022-09-16T04:31:53;11.70;99.90
59098;DHT22;44883;52.760;6.610;2022-09-16T04:34:19;11.70;99.90
59098;DHT22;44883;52.760;6.610;2022-09-16T04:36:45;11.70;99.90
59098;DHT22;44883;52.760;6.610;2022-09-16T04:39:11;11.60;99.90
59098;DHT22;44883;52.760;6.610;2022-09-16T04:41:37;11.60;99.90
59098;DHT22;44883;52.760;6.610;2022-09-16T04:44:04;11.60;99.90
59098;DHT22;44883;52.760;6.610;2022-09-16T04:46:30;11.60;99.90
59098;DHT22;44883;52.760;6.610;2022-09-16T04:48:57;11.60;99.90
59098;DHT22;44883;52.760;6.610;2022-09-16T04:51:25;11.50;99.90
59098;DHT22;44883;52.760;6.610;2022-09-16T04:53:53;11.50;99.90
59098;DHT22;44883;52.760;6.610;2022-09-16T04:56:22;11.50;99.90
59098;DHT22;44883;52.760;6.610;2022-09-16T04:58:50;11.50;99.90
59098;DHT22;44883;52.760;6.610;2022-09-16T05:01:21;11.50;99.90
59098;DHT22;44883;52.760;6.610;2022-09-16T05:03:52;11.50;99.90
59098;DHT22;44883;52.760;6.610;2022-09-16T05:06:23;11.50;99.90
59098;DHT22;44883;52.760;6.610;2022-09-16T05:08:50;11.50;99.90
59098;DHT22;44883;52.760;6.610;2022-09-16T05:11:25;11.40;99.90
59098;DHT22;44883;52.760;6.610;2022-09-16T05:13:51;11.40;99.90
59098;DHT22;44883;52.760;6.610;2022-09-16T05:16:19;11.40;99.90
59098;DHT22;44883;52.760;6.610;2022-09-16T05:18:47;11.40;99.90
59098;DHT22;44883;52.760;6.610;2022-09-16T05:21:15;11.40;99.90
59098;DHT22;44883;52.760;6.610;2022-09-16T05:23:41;11.30;99.90
59098;DHT22;44883;52.760;6.610;2022-09-16T05:26:12;11.30;99.90
59098;DHT22;44883;52.760;6.610;2022-09-16T05:28:37;11.30;99.90
59098;DHT22;44883;52.760;6.610;2022-09-16T05:31:30;11.30;99.90
59098;DHT22;44883;52.760;6.610;2022-09-16T05:34:05;11.30;99.90
59098;DHT22;44883;52.760;6.610;2022-09-16T05:36:33;11.30;99.90
59098;DHT22;44883;52.760;6.610;2022-09-16T05:38:59;11.30;99.90
59098;DHT22;44883;52.760;6.610;2022-09-16T05:41:25;11.30;99.90
59098;DHT22;44883;52.760;6.610;2022-09-16T05:43:52;11.30;99.90
59098;DHT22;44883;52.760;6.610;2022-09-16T05:46:20;11.30;99.90
59098;DHT22;44883;52.760;6.610;2022-09-16T05:48:46;11.50;99.90
59098;DHT22;44883;52.760;6.610;2022-09-16T05:51:14;12.20;99.90
59098;DHT22;44883;52.760;6.610;2022-09-16T05:53:41;13.10;99.90
59098;DHT22;44883;52.760;6.610;2022-09-16T05:56:10;14.10;99.90
59098;DHT22;44883;52.760;6.610;2022-09-16T05:58:36;15.10;99.90
59098;DHT22;44883;52.760;6.610;2022-09-16T06:01:10;16.00;99.90
59098;DHT22;44883;52.760;6.610;2022-09-16T06:03:38;16.80;98.00
59098;DHT22;44883;52.760;6.610;2022-09-16T06:06:23;17.50;96.40
59098;DHT22;44883;52.760;6.610;2022-09-16T06:08:50;18.20;91.90
59098;DHT22;44883;52.760;6.610;2022-09-16T06:11:16;18.80;92.80
59098;DHT22;44883;52.760;6.610;2022-09-16T06:13:41;19.40;90.90
59098;DHT22;44883;52.760;6.610;2022-09-16T06:16:08;19.70;88.90
59098;DHT22;44883;52.760;6.610;2022-09-16T06:18:34;19.90;86.10
59098;DHT22;44883;52.760;6.610;2022-09-16T06:21:09;19.50;85.60
59098;DHT22;44883;52.760;6.610;2022-09-16T06:23:36;18.80;86.00
59098;DHT22;44883;52.760;6.610;2022-09-16T06:26:07;18.10;90.70
59098;DHT22;44883;52.760;6.610;2022-09-16T06:28:34;17.60;92.10
59098;DHT22;44883;52.760;6.610;2022-09-16T06:31:01;17.90;92.30
59098;DHT22;44883;52.760;6.610;2022-09-16T06:33:27;17.90;91.50
59098;DHT22;44883;52.760;6.610;2022-09-16T06:35:53;17.90;91.10
59098;DHT22;44883;52.760;6.610;2022-09-16T06:38:18;17.50;91.00
59098;DHT22;44883;52.760;6.610;2022-09-16T06:40:44;17.00;92.10
59098;DHT22;44883;52.760;6.610;2022-09-16T06:43:09;16.50;93.00
59098;DHT22;44883;52.760;6.610;2022-09-16T06:45:35;16.10;94.00
59098;DHT22;44883;52.760;6.610;2022-09-16T06:48:01;15.70;94.80
59098;DHT22;44883;52.760;6.610;2022-09-16T06:50:26;15.40;95.50
59098;DHT22;44883;52.760;6.610;2022-09-16T06:52:52;15.60;96.30
59098;DHT22;44883;52.760;6.610;2022-09-16T06:55:17;17.00;95.30
59098;DHT22;44883;52.760;6.610;2022-09-16T06:57:43;18.60;92.30
59098;DHT22;44883;52.760;6.610;2022-09-16T07:00:09;20.10;85.80
59098;DHT22;44883;52.760;6.610;2022-09-16T07:02:35;21.30;75.60
59098;DHT22;44883;52.760;6.610;2022-09-16T07:05:00;22.30;64.70
59098;DHT22;44883;52.760;6.610;2022-09-16T07:07:29;22.90;59.20
59098;DHT22;44883;52.760;6.610;2022-09-16T07:09:56;23.50;56.60
59098;DHT22;44883;52.760;6.610;2022-09-16T07:12:21;24.20;54.10
59098;DHT22;44883;52.760;6.610;2022-09-16T07:14:47;24.70;52.50
59098;DHT22;44883;52.760;6.610;2022-09-16T07:17:13;25.20;50.60
59098;DHT22;44883;52.760;6.610;2022-09-16T07:19:38;25.20;49.20
59098;DHT22;44883;52.760;6.610;2022-09-16T07:22:06;24.20;49.60
59098;DHT22;44883;52.760;6.610;2022-09-16T07:24:32;23.20;51.30
59098;DHT22;44883;52.760;6.610;2022-09-16T07:26:57;23.30;51.60
59098;DHT22;44883;52.760;6.610;2022-09-16T07:29:23;24.10;51.20
59098;DHT22;44883;52.760;6.610;2022-09-16T07:31:48;24.80;49.70
59098;DHT22;44883;52.760;6.610;2022-09-16T07:34:14;25.50;48.10
59098;DHT22;44883;52.760;6.610;2022-09-16T07:36:45;26.20;47.00
59098;DHT22;44883;52.760;6.610;2022-09-16T07:39:13;26.70;46.00
59098;DHT22;44883;52.760;6.610;2022-09-16T07:41:40;27.10;44.80
59098;DHT22;44883;52.760;6.610;2022-09-16T07:44:09;27.40;45.00
59098;DHT22;44883;52.760;6.610;2022-09-16T07:46:36;27.50;43.10
59098;DHT22;44883;52.760;6.610;2022-09-16T07:49:04;27.50;43.30
59098;DHT22;44883;52.760;6.610;2022-09-16T07:51:31;27.80;42.60
59098;DHT22;44883;52.760;6.610;2022-09-16T07:54:04;27.90;42.20
59098;DHT22;44883;52.760;6.610;2022-09-16T07:56:33;27.90;41.80
59098;DHT22;44883;52.760;6.610;2022-09-16T07:58:59;28.00;41.90
59098;DHT22;44883;52.760;6.610;2022-09-16T08:01:25;28.30;40.80
59098;DHT22;44883;52.760;6.610;2022-09-16T08:03:51;28.40;40.60
59098;DHT22;44883;52.760;6.610;2022-09-16T08:06:23;28.60;40.20
59098;DHT22;44883;52.760;6.610;2022-09-16T08:08:51;28.80;39.30
59098;DHT22;44883;52.760;6.610;2022-09-16T08:11:17;29.10;39.70
59098;DHT22;44883;52.760;6.610;2022-09-16T08:13:43;28.90;39.10
59098;DHT22;44883;52.760;6.610;2022-09-16T08:16:11;28.90;38.80
59098;DHT22;44883;52.760;6.610;2022-09-16T08:18:37;29.00;38.60
59098;DHT22;44883;52.760;6.610;2022-09-16T08:21:07;29.10;39.40
59098;DHT22;44883;52.760;6.610;2022-09-16T08:23:34;29.10;38.30
59098;DHT22;44883;52.760;6.610;2022-09-16T08:26:00;29.20;39.00
59098;DHT22;44883;52.760;6.610;2022-09-16T08:28:27;29.40;38.80
59098;DHT22;44883;52.760;6.610;2022-09-16T08:30:53;29.30;37.60
59098;DHT22;44883;52.760;6.610;2022-09-16T08:33:19;29.50;37.80
59098;DHT22;44883;52.760;6.610;2022-09-16T08:36:17;29.50;38.00
59098;DHT22;44883;52.760;6.610;2022-09-16T08:38:43;29.60;36.80
59098;DHT22;44883;52.760;6.610;2022-09-16T08:44:19;29.50;37.80
59098;DHT22;44883;52.760;6.610;2022-09-16T08:46:53;29.40;37.30
59098;DHT22;44883;52.760;6.610;2022-09-16T08:49:37;29.40;38.00
59098;DHT22;44883;52.760;6.610;2022-09-16T08:55:08;29.10;36.30
59098;DHT22;44883;52.760;6.610;2022-09-16T08:57:40;27.80;38.10
59098;DHT22;44883;52.760;6.610;2022-09-16T09:00:13;27.30;39.10
59098;DHT22;44883;52.760;6.610;2022-09-16T09:05:50;24.70;42.20
59098;DHT22;44883;52.760;6.610;2022-09-16T09:08:50;23.10;44.10
59098;DHT22;44883;52.760;6.610;2022-09-16T09:14:22;21.10;49.50
59098;DHT22;44883;52.760;6.610;2022-09-16T09:25:48;22.50;47.90
59098;DHT22;44883;52.760;6.610;2022-09-16T09:41:26;24.10;42.80
59098;DHT22;44883;52.760;6.610;2022-09-16T09:43:56;24.30;43.00
59098;DHT22;44883;52.760;6.610;2022-09-16T09:46:30;25.00;42.40
59098;DHT22;44883;52.760;6.610;2022-09-16T09:49:11;25.50;40.40
59098;DHT22;44883;52.760;6.610;2022-09-16T09:51:48;26.00;40.70
59098;DHT22;44883;52.760;6.610;2022-09-16T09:54:26;25.90;40.00
59098;DHT22;44883;52.760;6.610;2022-09-16T09:57:40;25.90;39.80
59098;DHT22;44883;52.760;6.610;2022-09-16T10:02:21;25.80;39.10
59098;DHT22;44883;52.760;6.610;2022-09-16T10:04:47;25.10;38.90
59098;DHT22;44883;52.760;6.610;2022-09-16T10:07:16;23.90;38.80
59098;DHT22;44883;52.760;6.610;2022-09-16T10:09:55;22.80;39.90
59098;DHT22;44883;52.760;6.610;2022-09-16T10:12:30;23.50;40.50
59098;DHT22;44883;52.760;6.610;2022-09-16T10:14:56;24.10;39.20
59098;DHT22;44883;52.760;6.610;2022-09-16T10:17:22;24.30;39.50
59098;DHT22;44883;52.760;6.610;2022-09-16T10:20:03;24.90;39.30
59098;DHT22;44883;52.760;6.610;2022-09-16T10:22:34;25.60;38.00
59098;DHT22;44883;52.760;6.610;2022-09-16T10:25:06;25.70;37.60
59098;DHT22;44883;52.760;6.610;2022-09-16T10:27:34;25.10;38.40
59098;DHT22;44883;52.760;6.610;2022-09-16T10:30:19;25.20;38.60
59098;DHT22;44883;52.760;6.610;2022-09-16T10:35:25;23.90;40.40
59098;DHT22;44883;52.760;6.610;2022-09-16T10:37:57;23.00;42.20
59098;DHT22;44883;52.760;6.610;2022-09-16T10:40:23;22.00;43.40
59098;DHT22;44883;52.760;6.610;2022-09-16T10:42:52;21.30;44.30
59098;DHT22;44883;52.760;6.610;2022-09-16T10:45:26;20.60;45.60
59098;DHT22;44883;52.760;6.610;2022-09-16T10:48:03;19.60;48.90
59098;DHT22;44883;52.760;6.610;2022-09-16T10:50:30;19.40;50.00
59098;DHT22;44883;52.760;6.610;2022-09-16T10:52:56;19.40;50.40
59098;DHT22;44883;52.760;6.610;2022-09-16T10:55:25;19.20;50.40
59098;DHT22;44883;52.760;6.610;2022-09-16T10:57:52;19.40;49.40
59098;DHT22;44883;52.760;6.610;2022-09-16T11:00:22;19.60;48.60
59098;DHT22;44883;52.760;6.610;2022-09-16T11:06:13;19.50;48.60
59098;DHT22;44883;52.760;6.610;2022-09-16T11:22:36;18.30;53.20
59098;DHT22;44883;52.760;6.610;2022-09-16T11:25:15;18.20;54.40
59098;DHT22;44883;52.760;6.610;2022-09-16T11:27:54;18.10;54.40
59098;DHT22;44883;52.760;6.610;2022-09-16T11:30:23;18.10;56.00
59098;DHT22;44883;52.760;6.610;2022-09-16T11:33:21;18.20;55.40
59098;DHT22;44883;52.760;6.610;2022-09-16T11:38:51;18.40;56.20
59098;DHT22;44883;52.760;6.610;2022-09-16T11:41:30;18.40;53.30
59098;DHT22;44883;52.760;6.610;2022-09-16T11:44:21;18.40;52.40
59098;DHT22;44883;52.760;6.610;2022-09-16T11:53:00;18.40;52.40
59098;DHT22;44883;52.760;6.610;2022-09-16T11:58:29;18.70;52.10
59098;DHT22;44883;52.760;6.610;2022-09-16T12:01:01;18.80;52.10
59098;DHT22;44883;52.760;6.610;2022-09-16T12:03:51;18.80;52.10
59098;DHT22;44883;52.760;6.610;2022-09-16T12:06:21;18.70;51.00
59098;DHT22;44883;52.760;6.610;2022-09-16T12:09:01;18.70;52.10
59098;DHT22;44883;52.760;6.610;2022-09-16T12:11:44;18.60;52.70
59098;DHT22;44883;52.760;6.610;2022-09-16T12:14:21;18.50;52.50
59098;DHT22;44883;52.760;6.610;2022-09-16T12:16:54;18.30;52.20
59098;DHT22;44883;52.760;6.610;2022-09-16T12:19:24;18.20;52.50
59098;DHT22;44883;52.760;6.610;2022-09-16T12:21:58;18.10;51.80
59098;DHT22;44883;52.760;6.610;2022-09-16T12:24:43;18.00;52.30
59098;DHT22;44883;52.760;6.610;2022-09-16T12:30:00;18.10;53.40
59098;DHT22;44883;52.760;6.610;2022-09-16T12:35:14;17.50;69.50
59098;DHT22;44883;52.760;6.610;2022-09-16T12:37:49;17.20;72.00
59098;DHT22;44883;52.760;6.610;2022-09-16T12:46:29;16.60;87.90
59098;DHT22;44883;52.760;6.610;2022-09-16T13:00:40;17.10;90.60
59098;DHT22;44883;52.760;6.610;2022-09-16T13:03:20;17.10;90.20
59098;DHT22;44883;52.760;6.610;2022-09-16T13:05:49;17.30;91.20
59098;DHT22;44883;52.760;6.610;2022-09-16T13:08:28;17.40;90.40
59098;DHT22;44883;52.760;6.610;2022-09-16T13:11:00;17.50;90.30
59098;DHT22;44883;52.760;6.610;2022-09-16T13:13:40;17.20;86.00
59098;DHT22;44883;52.760;6.610;2022-09-16T13:16:07;17.20;85.40
59098;DHT22;44883;52.760;6.610;2022-09-16T13:18:48;17.10;82.80
59098;DHT22;44883;52.760;6.610;2022-09-16T13:21:27;17.20;81.30
59098;DHT22;44883;52.760;6.610;2022-09-16T13:24:03;17.30;80.40
59098;DHT22;44883;52.760;6.610;2022-09-16T13:26:44;17.50;83.70
59098;DHT22;44883;52.760;6.610;2022-09-16T13:32:04;18.00;79.60
59098;DHT22;44883;52.760;6.610;2022-09-16T13:34:30;18.20;77.30
59098;DHT22;44883;52.760;6.610;2022-09-16T13:36:56;18.30;73.10
59098;DHT22;44883;52.760;6.610;2022-09-16T13:39:32;18.40;71.40
59098;DHT22;44883;52.760;6.610;2022-09-16T13:42:19;18.40;60.10
59098;DHT22;44883;52.760;6.610;2022-09-16T13:44:45;18.00;66.20
59098;DHT22;44883;52.760;6.610;2022-09-16T13:49:50;17.80;71.00
59098;DHT22;44883;52.760;6.610;2022-09-16T13:52:26;18.00;74.30
59098;DHT22;44883;52.760;6.610;2022-09-16T13:54:53;18.20;72.50
59098;DHT22;44883;52.760;6.610;2022-09-16T13:58:14;18.30;69.90
59098;DHT22;44883;52.760;6.610;2022-09-16T14:00:33;18.30;67.20
59098;DHT22;44883;52.760;6.610;2022-09-16T14:08:26;18.20;64.60
59098;DHT22;44883;52.760;6.610;2022-09-16T14:11:14;18.10;65.20
59098;DHT22;44883;52.760;6.610;2022-09-16T14:13:45;18.00;63.70
59098;DHT22;44883;52.760;6.610;2022-09-16T14:16:18;17.90;67.30
59098;DHT22;44883;52.760;6.610;2022-09-16T14:18:58;17.70;82.40
59098;DHT22;44883;52.760;6.610;2022-09-16T14:21:25;17.20;85.70
59098;DHT22;44883;52.760;6.610;2022-09-16T14:23:51;16.80;90.80
59098;DHT22;44883;52.760;6.610;2022-09-16T14:26:22;16.40;91.70
59098;DHT22;44883;52.760;6.610;2022-09-16T14:28:48;15.90;93.60
59098;DHT22;44883;52.760;6.610;2022-09-16T14:31:20;15.70;93.80
59098;DHT22;44883;52.760;6.610;2022-09-16T14:33:50;15.80;93.70
59098;DHT22;44883;52.760;6.610;2022-09-16T14:36:23;15.80;93.80
59098;DHT22;44883;52.760;6.610;2022-09-16T14:38:55;15.80;94.10
59098;DHT22;44883;52.760;6.610;2022-09-16T14:46:45;16.00;94.40
59098;DHT22;44883;52.760;6.610;2022-09-16T14:49:13;16.00;94.60
59098;DHT22;44883;52.760;6.610;2022-09-16T14:51:44;16.00;94.50
59098;DHT22;44883;52.760;6.610;2022-09-16T14:54:17;16.00;93.40
59098;DHT22;44883;52.760;6.610;2022-09-16T14:56:57;16.10;94.50
59098;DHT22;44883;52.760;6.610;2022-09-16T14:59:32;16.20;94.90
59098;DHT22;44883;52.760;6.610;2022-09-16T15:02:07;16.20;94.90
59098;DHT22;44883;52.760;6.610;2022-09-16T15:04:38;16.30;94.80
59098;DHT22;44883;52.760;6.610;2022-09-16T15:07:15;16.30;95.50
59098;DHT22;44883;52.760;6.610;2022-09-16T15:09:50;16.20;95.30
59098;DHT22;44883;52.760;6.610;2022-09-16T15:12:31;16.00;96.10
59098;DHT22;44883;52.760;6.610;2022-09-16T15:14:57;16.00;96.20
59098;DHT22;44883;52.760;6.610;2022-09-16T15:17:27;16.10;95.90
59098;DHT22;44883;52.760;6.610;2022-09-16T15:19:56;16.00;95.70
59098;DHT22;44883;52.760;6.610;2022-09-16T15:22:23;16.10;95.70
59098;DHT22;44883;52.760;6.610;2022-09-16T15:24:54;16.00;95.60
59098;DHT22;44883;52.760;6.610;2022-09-16T15:27:23;16.10;95.10
59098;DHT22;44883;52.760;6.610;2022-09-16T15:29:56;16.00;95.10
59098;DHT22;44883;52.760;6.610;2022-09-16T15:32:24;16.10;94.90
59098;DHT22;44883;52.760;6.610;2022-09-16T15:35:10;16.10;94.60
59098;DHT22;44883;52.760;6.610;2022-09-16T15:37:37;16.10;94.10
59098;DHT22;44883;52.760;6.610;2022-09-16T15:45:59;16.00;93.30
59098;DHT22;44883;52.760;6.610;2022-09-16T15:48:29;15.80;93.30
59098;DHT22;44883;52.760;6.610;2022-09-16T15:51:05;15.70;93.40
59098;DHT22;44883;52.760;6.610;2022-09-16T15:53:42;15.60;93.30
59098;DHT22;44883;52.760;6.610;2022-09-16T15:56:31;15.60;93.60
59098;DHT22;44883;52.760;6.610;2022-09-16T15:59:04;15.60;93.80
59098;DHT22;44883;52.760;6.610;2022-09-16T16:01:47;15.50;93.90
59098;DHT22;44883;52.760;6.610;2022-09-16T16:04:23;15.40;93.50
59098;DHT22;44883;52.760;6.610;2022-09-16T16:06:56;15.40;93.60
59098;DHT22;44883;52.760;6.610;2022-09-16T16:11:54;15.30;93.90
59098;DHT22;44883;52.760;6.610;2022-09-16T16:14:21;15.20;93.80
59098;DHT22;44883;52.760;6.610;2022-09-16T16:16:48;15.20;93.90
59098;DHT22;44883;52.760;6.610;2022-09-16T16:19:14;15.10;94.40
59098;DHT22;44883;52.760;6.610;2022-09-16T16:21:40;15.00;95.10
59098;DHT22;44883;52.760;6.610;2022-09-16T16:24:08;15.00;94.90
59098;DHT22;44883;52.760;6.610;2022-09-16T16:26:34;15.00;96.10
59098;DHT22;44883;52.760;6.610;2022-09-16T16:29:00;14.90;96.50
59098;DHT22;44883;52.760;6.610;2022-09-16T16:31:26;14.80;96.70
59098;DHT22;44883;52.760;6.610;2022-09-16T16:33:52;14.80;97.20
59098;DHT22;44883;52.760;6.610;2022-09-16T16:36:18;14.80;97.40
59098;DHT22;44883;52.760;6.610;2022-09-16T16:38:44;14.80;97.70
59098;DHT22;44883;52.760;6.610;2022-09-16T16:41:18;14.70;98.20
59098;DHT22;44883;52.760;6.610;2022-09-16T16:43:43;14.70;98.50
59098;DHT22;44883;52.760;6.610;2022-09-16T16:46:09;14.70;98.20
59098;DHT22;44883;52.760;6.610;2022-09-16T16:48:35;14.70;98.60
59098;DHT22;44883;52.760;6.610;2022-09-16T16:51:08;14.70;98.70
59098;DHT22;44883;52.760;6.610;2022-09-16T16:53:34;14.70;98.80
59098;DHT22;44883;52.760;6.610;2022-09-16T16:58:32;14.60;99.10
59098;DHT22;44883;52.760;6.610;2022-09-16T17:03:37;14.50;99.70
59098;DHT22;44883;52.760;6.610;2022-09-16T17:06:03;14.50;99.10
59098;DHT22;44883;52.760;6.610;2022-09-16T17:08:29;14.50;99.00
59098;DHT22;44883;52.760;6.610;2022-09-16T17:11:27;14.40;98.90
59098;DHT22;44883;52.760;6.610;2022-09-16T17:14:01;14.40;99.20
59098;DHT22;44883;52.760;6.610;2022-09-16T17:16:27;14.40;99.30
59098;DHT22;44883;52.760;6.610;2022-09-16T17:18:54;14.40;99.30
59098;DHT22;44883;52.760;6.610;2022-09-16T17:21:23;14.40;99.40
59098;DHT22;44883;52.760;6.610;2022-09-16T17:23:49;14.30;99.10
59098;DHT22;44883;52.760;6.610;2022-09-16T17:26:15;14.20;99.10
59098;DHT22;44883;52.760;6.610;2022-09-16T17:28:43;14.20;99.80
59098;DHT22;44883;52.760;6.610;2022-09-16T17:31:20;14.20;99.60
59098;DHT22;44883;52.760;6.610;2022-09-16T17:33:48;14.10;99.70
59098;DHT22;44883;52.760;6.610;2022-09-16T17:36:16;14.10;99.70
59098;DHT22;44883;52.760;6.610;2022-09-16T17:38:44;14.10;99.80
59098;DHT22;44883;52.760;6.610;2022-09-16T17:41:11;14.10;99.30
59098;DHT22;44883;52.760;6.610;2022-09-16T17:43:37;14.10;99.50
59098;DHT22;44883;52.760;6.610;2022-09-16T17:46:05;14.00;99.70
59098;DHT22;44883;52.760;6.610;2022-09-16T17:48:31;14.00;99.70
59098;DHT22;44883;52.760;6.610;2022-09-16T17:50:58;14.00;99.70
59098;DHT22;44883;52.760;6.610;2022-09-16T17:53:24;14.00;99.00
59098;DHT22;44883;52.760;6.610;2022-09-16T17:55:50;14.00;99.70
59098;DHT22;44883;52.760;6.610;2022-09-16T17:58:16;13.90;99.70
59098;DHT22;44883;52.760;6.610;2022-09-16T18:00:43;13.90;99.50
59098;DHT22;44883;52.760;6.610;2022-09-16T18:03:10;13.90;99.90
59098;DHT22;44883;52.760;6.610;2022-09-16T18:05:36;13.90;99.90
59098;DHT22;44883;52.760;6.610;2022-09-16T18:08:03;13.90;99.90
59098;DHT22;44883;52.760;6.610;2022-09-16T18:10:29;13.80;99.90
59098;DHT22;44883;52.760;6.610;2022-09-16T18:12:56;13.80;99.90
59098;DHT22;44883;52.760;6.610;2022-09-16T18:15:25;13.80;99.90
59098;DHT22;44883;52.760;6.610;2022-09-16T18:17:52;13.80;99.90
59098;DHT22;44883;52.760;6.610;2022-09-16T18:20:18;13.80;99.90
59098;DHT22;44883;52.760;6.610;2022-09-16T18:22:43;13.80;99.90
59098;DHT22;44883;52.760;6.610;2022-09-16T18:25:09;13.80;99.90
59098;DHT22;44883;52.760;6.610;2022-09-16T18:27:35;13.80;99.90
59098;DHT22;44883;52.760;6.610;2022-09-16T18:30:01;13.80;99.90